Rio Orinoco — V7VX7 — position and weather

sailwx.info

Track history (hours):
 
Tides and Currents Weather Stations Pressure Air Temp Water Temp Dewpoint Dewpoint Depression Visibility Wind Speed Wind Dir Waves Ship Positions

Rio Orinoco

Last reported at 2018-Mar-16 22:13 UTC. Time now 2018-May-27 11:56 UTC.
Position N 17°29' W 063°02'.
Warning: this ship's position is months out of date.

Length 274 m; draft 12.9 m.

Type: Tanker. MMSI: 538004236.

Date/timePositionNaut miles runAvg speedWind from/ knotsBaromVisibWave heightAir tempDewpointWater temp
2018-Mar-16 22:13N 17°29' W 063°02'3 0.9
2018-Mar-16 18:55N 17°26' W 063°00'3 4.5
2018-Mar-16 18:16N 17°29' W 063°01'0 0.1
2018-Mar-16 17:01N 17°29' W 063°01'0 0.0
2018-Mar-16 16:49N 17°29' W 063°01'0 0.0
2018-Mar-16 16:04N 17°29' W 063°01'0 0.0
2018-Mar-16 14:31N 17°29' W 063°01'0 0.0
2018-Mar-16 14:19N 17°29' W 063°01'0 0.0
2018-Mar-16 13:49N 17°29' W 063°01'0 0.0
2018-Mar-16 12:34N 17°29' W 063°01'0 0.0
2018-Mar-16 12:07N 17°29' W 063°01'0 0.1
2018-Mar-16 11:49N 17°29' W 063°01'0 0.0
2018-Mar-16 11:19N 17°29' W 063°01'0 0.1
2018-Mar-16 10:55N 17°29' W 063°01'0 0.0
2018-Mar-16 10:10N 17°29' W 063°01'0 0.0
2018-Mar-16 08:43N 17°29' W 063°01'0 0.0
2018-Mar-16 08:13N 17°29' W 063°01'0 0.0
2018-Mar-16 07:58N 17°29' W 063°01'0 0.0
2018-Mar-16 07:25N 17°29' W 063°01'0 0.0
2018-Mar-16 06:43N 17°29' W 063°01'0 0.0
2018-Mar-16 05:43N 17°29' W 063°01'0 0.0
2018-Mar-16 03:31N 17°29' W 063°01'0 0.0
2018-Mar-16 00:19N 17°29' W 063°01'0 0.0
2018-Mar-15 23:52N 17°29' W 063°01'0 0.1
2018-Mar-15 23:19N 17°29' W 063°01'0 0.0
2018-Mar-15 22:49N 17°29' W 063°01'0 0.0
2018-Mar-15 21:37N 17°29' W 063°01'0 0.1
2018-Mar-15 21:25N 17°29' W 063°01'0 0.0
2018-Mar-15 20:55N 17°29' W 063°01'0 0.0
2018-Mar-15 20:22N 17°29' W 063°01'0 0.0
2018-Mar-15 18:55N 17°29' W 063°01'0 0.1
2018-Mar-15 17:36N 17°29' W 063°01'1 2.5
2018-Mar-15 17:19N 17°30' W 063°02'1 3.8
2018-Mar-15 16:59N 17°30' W 063°03'1 1.8
2018-Mar-15 16:27N 17°30' W 063°04'0 0.7
2018-Mar-15 16:00N 17°30' W 063°04'1 1.2
2018-Mar-15 15:30N 17°29' W 063°05'10 8.0
2018-Mar-15 14:15N 17°20' W 063°01'29 1.7
2018-Mar-14 21:35N 16°51' W 063°02'0 1.0
2018-Mar-14 21:23N 16°51' W 063°02'16 0.6
2018-Mar-13 20:25N 16°36' W 062°56'0 0.2
2018-Mar-13 19:05N 16°36' W 062°56'0 0.2
2018-Mar-13 18:46N 16°36' W 062°56'0 0.3
2018-Mar-13 18:30N 16°36' W 062°56'0 0.2
2018-Mar-13 18:00N 16°36' W 062°56'  
Track history (hours):
 
Tides and Currents Weather Stations Pressure Air Temp Water Temp Dewpoint Dewpoint Depression Visibility Wind Speed Wind Dir Waves Ship Positions

Rio Orinoco

Last reported at 2018-Mar-16 22:13 UTC. Time now 2018-May-27 11:56 UTC.
Position N 17°29' W 063°02'.
Warning: this ship's position is months out of date.

Length 274 m; draft 12.9 m.

Type: Tanker. MMSI: 538004236.

Date/timePositionNaut miles runAvg speedWind from/ knotsBaromVisibWave heightAir tempDewpointWater temp
2018-Mar-16 22:13N 17°29' W 063°02'3 0.9
2018-Mar-16 18:55N 17°26' W 063°00'3 4.5
2018-Mar-16 18:16N 17°29' W 063°01'0 0.1
2018-Mar-16 17:01N 17°29' W 063°01'0 0.0
2018-Mar-16 16:49N 17°29' W 063°01'0 0.0
2018-Mar-16 16:04N 17°29' W 063°01'0 0.0
2018-Mar-16 14:31N 17°29' W 063°01'0 0.0
2018-Mar-16 14:19N 17°29' W 063°01'0 0.0
2018-Mar-16 13:49N 17°29' W 063°01'0 0.0
2018-Mar-16 12:34N 17°29' W 063°01'0 0.0
2018-Mar-16 12:07N 17°29' W 063°01'0 0.1
2018-Mar-16 11:49N 17°29' W 063°01'0 0.0
2018-Mar-16 11:19N 17°29' W 063°01'0 0.1
2018-Mar-16 10:55N 17°29' W 063°01'0 0.0
2018-Mar-16 10:10N 17°29' W 063°01'0 0.0
2018-Mar-16 08:43N 17°29' W 063°01'0 0.0
2018-Mar-16 08:13N 17°29' W 063°01'0 0.0
2018-Mar-16 07:58N 17°29' W 063°01'0 0.0
2018-Mar-16 07:25N 17°29' W 063°01'0 0.0
2018-Mar-16 06:43N 17°29' W 063°01'0 0.0
2018-Mar-16 05:43N 17°29' W 063°01'0 0.0
2018-Mar-16 03:31N 17°29' W 063°01'0 0.0
2018-Mar-16 00:19N 17°29' W 063°01'0 0.0
2018-Mar-15 23:52N 17°29' W 063°01'0 0.1
2018-Mar-15 23:19N 17°29' W 063°01'0 0.0
2018-Mar-15 22:49N 17°29' W 063°01'0 0.0
2018-Mar-15 21:37N 17°29' W 063°01'0 0.1
2018-Mar-15 21:25N 17°29' W 063°01'0 0.0
2018-Mar-15 20:55N 17°29' W 063°01'0 0.0
2018-Mar-15 20:22N 17°29' W 063°01'0 0.0
2018-Mar-15 18:55N 17°29' W 063°01'0 0.1
2018-Mar-15 17:36N 17°29' W 063°01'1 2.5
2018-Mar-15 17:19N 17°30' W 063°02'1 3.8
2018-Mar-15 16:59N 17°30' W 063°03'1 1.8
2018-Mar-15 16:27N 17°30' W 063°04'0 0.7
2018-Mar-15 16:00N 17°30' W 063°04'1 1.2
2018-Mar-15 15:30N 17°29' W 063°05'10 8.0
2018-Mar-15 14:15N 17°20' W 063°01'29 1.7
2018-Mar-14 21:35N 16°51' W 063°02'0 1.0
2018-Mar-14 21:23N 16°51' W 063°02'16 0.6
2018-Mar-13 20:25N 16°36' W 062°56'0 0.2
2018-Mar-13 19:05N 16°36' W 062°56'0 0.2
2018-Mar-13 18:46N 16°36' W 062°56'0 0.3
2018-Mar-13 18:30N 16°36' W 062°56'0 0.2
2018-Mar-13 18:00N 16°36' W 062°56'  

Dump ship's entire track history